sensor_id;sensor_type;location;lat;lon;timestamp;pressure;altitude;pressure_sealevel;temperature
76381;BMP280;65202;52.520;10.528;2023-11-19T00:00:09;100527.19;;;5.43
76381;BMP280;65202;52.520;10.528;2023-11-19T00:02:41;100509.06;;;5.44
76381;BMP280;65202;52.520;10.528;2023-11-19T00:05:10;100499.28;;;5.47
76381;BMP280;65202;52.520;10.528;2023-11-19T00:07:41;100485.34;;;5.49
76381;BMP280;65202;52.520;10.528;2023-11-19T00:12:43;100491.28;;;5.51
76381;BMP280;65202;52.520;10.528;2023-11-19T00:15:18;100483.63;;;5.48
76381;BMP280;65202;52.520;10.528;2023-11-19T00:17:47;100489.88;;;5.41
76381;BMP280;65202;52.520;10.528;2023-11-19T00:20:20;100478.06;;;5.52
76381;BMP280;65202;52.520;10.528;2023-11-19T00:22:50;100468.25;;;5.53
76381;BMP280;65202;52.520;10.528;2023-11-19T00:25:21;100466.09;;;5.45
76381;BMP280;65202;52.520;10.528;2023-11-19T00:27:50;100464.81;;;5.51
76381;BMP280;65202;52.520;10.528;2023-11-19T00:30:18;100460.91;;;5.55
76381;BMP280;65202;52.520;10.528;2023-11-19T00:32:46;100454.13;;;5.52
76381;BMP280;65202;52.520;10.528;2023-11-19T00:35:13;100449.75;;;5.48
76381;BMP280;65202;52.520;10.528;2023-11-19T00:37:43;100435.03;;;5.51
76381;BMP280;65202;52.520;10.528;2023-11-19T00:40:13;100428.03;;;5.59
76381;BMP280;65202;52.520;10.528;2023-11-19T00:42:40;100424.25;;;5.51
76381;BMP280;65202;52.520;10.528;2023-11-19T00:45:08;100425.25;;;5.54
76381;BMP280;65202;52.520;10.528;2023-11-19T00:47:37;100396.50;;;5.58
76381;BMP280;65202;52.520;10.528;2023-11-19T00:50:05;100387.34;;;5.57
76381;BMP280;65202;52.520;10.528;2023-11-19T00:52:33;100379.88;;;5.57
76381;BMP280;65202;52.520;10.528;2023-11-19T00:55:00;100375.44;;;5.51
76381;BMP280;65202;52.520;10.528;2023-11-19T00:57:28;100376.03;;;5.61
76381;BMP280;65202;52.520;10.528;2023-11-19T00:59:55;100385.88;;;5.60
76381;BMP280;65202;52.520;10.528;2023-11-19T01:02:22;100383.00;;;5.67
76381;BMP280;65202;52.520;10.528;2023-11-19T01:04:49;100372.28;;;5.68
76381;BMP280;65202;52.520;10.528;2023-11-19T01:07:16;100369.53;;;5.63
76381;BMP280;65202;52.520;10.528;2023-11-19T01:09:44;100353.81;;;5.63
76381;BMP280;65202;52.520;10.528;2023-11-19T01:12:11;100349.69;;;5.63
76381;BMP280;65202;52.520;10.528;2023-11-19T01:14:39;100343.00;;;5.62
76381;BMP280;65202;52.520;10.528;2023-11-19T01:17:06;100330.50;;;5.61
76381;BMP280;65202;52.520;10.528;2023-11-19T01:19:34;100330.50;;;5.61
76381;BMP280;65202;52.520;10.528;2023-11-19T01:22:01;100333.34;;;5.67
76381;BMP280;65202;52.520;10.528;2023-11-19T01:24:28;100322.38;;;5.63
76381;BMP280;65202;52.520;10.528;2023-11-19T01:26:58;100323.88;;;5.61
76381;BMP280;65202;52.520;10.528;2023-11-19T01:29:27;100312.44;;;5.63
76381;BMP280;65202;52.520;10.528;2023-11-19T01:31:54;100313.28;;;5.64
76381;BMP280;65202;52.520;10.528;2023-11-19T01:34:21;100309.34;;;5.67
76381;BMP280;65202;52.520;10.528;2023-11-19T01:36:48;100297.47;;;5.76
76381;BMP280;65202;52.520;10.528;2023-11-19T01:39:16;100289.94;;;5.61
76381;BMP280;65202;52.520;10.528;2023-11-19T01:41:44;100280.16;;;5.78
76381;BMP280;65202;52.520;10.528;2023-11-19T01:44:11;100273.81;;;5.68
76381;BMP280;65202;52.520;10.528;2023-11-19T01:46:44;100278.16;;;5.72
76381;BMP280;65202;52.520;10.528;2023-11-19T01:49:15;100263.56;;;5.77
76381;BMP280;65202;52.520;10.528;2023-11-19T01:51:46;100252.75;;;5.62
76381;BMP280;65202;52.520;10.528;2023-11-19T01:54:15;100247.34;;;5.69
76381;BMP280;65202;52.520;10.528;2023-11-19T01:56:43;100252.38;;;5.70
76381;BMP280;65202;52.520;10.528;2023-11-19T01:59:12;100241.75;;;5.73
76381;BMP280;65202;52.520;10.528;2023-11-19T02:01:41;100235.88;;;5.85
76381;BMP280;65202;52.520;10.528;2023-11-19T02:04:09;100235.88;;;5.85
76381;BMP280;65202;52.520;10.528;2023-11-19T02:06:40;100237.09;;;5.77
76381;BMP280;65202;52.520;10.528;2023-11-19T02:09:08;100232.28;;;5.80
76381;BMP280;65202;52.520;10.528;2023-11-19T02:11:37;100225.78;;;5.82
76381;BMP280;65202;52.520;10.528;2023-11-19T02:14:07;100205.91;;;5.82
76381;BMP280;65202;52.520;10.528;2023-11-19T02:16:34;100211.91;;;5.86
76381;BMP280;65202;52.520;10.528;2023-11-19T02:19:02;100207.69;;;5.85
76381;BMP280;65202;52.520;10.528;2023-11-19T02:21:30;100204.38;;;5.84
76381;BMP280;65202;52.520;10.528;2023-11-19T02:23:57;100193.34;;;5.95
76381;BMP280;65202;52.520;10.528;2023-11-19T02:26:57;100181.59;;;6.07
76381;BMP280;65202;52.520;10.528;2023-11-19T02:29:29;100174.81;;;6.05
76381;BMP280;65202;52.520;10.528;2023-11-19T02:31:56;100172.78;;;5.98
76381;BMP280;65202;52.520;10.528;2023-11-19T02:34:24;100179.09;;;6.07
76381;BMP280;65202;52.520;10.528;2023-11-19T02:36:51;100167.59;;;6.09
76381;BMP280;65202;52.520;10.528;2023-11-19T02:39:20;100189.16;;;6.25
76381;BMP280;65202;52.520;10.528;2023-11-19T02:41:48;100183.63;;;6.30
76381;BMP280;65202;52.520;10.528;2023-11-19T02:44:19;100175.53;;;6.34
76381;BMP280;65202;52.520;10.528;2023-11-19T02:46:47;100169.19;;;6.39
76381;BMP280;65202;52.520;10.528;2023-11-19T02:49:15;100146.34;;;6.46
76381;BMP280;65202;52.520;10.528;2023-11-19T02:51:42;100139.88;;;6.49
76381;BMP280;65202;52.520;10.528;2023-11-19T02:54:10;100134.00;;;6.47
76381;BMP280;65202;52.520;10.528;2023-11-19T02:56:37;100120.63;;;6.45
76381;BMP280;65202;52.520;10.528;2023-11-19T02:59:06;100118.22;;;6.47
76381;BMP280;65202;52.520;10.528;2023-11-19T03:01:36;100108.88;;;6.59
76381;BMP280;65202;52.520;10.528;2023-11-19T03:04:03;100102.63;;;6.67
76381;BMP280;65202;52.520;10.528;2023-11-19T03:06:31;100094.84;;;6.77
76381;BMP280;65202;52.520;10.528;2023-11-19T03:08:59;100095.84;;;6.80
76381;BMP280;65202;52.520;10.528;2023-11-19T03:11:32;100095.28;;;6.86
76381;BMP280;65202;52.520;10.528;2023-11-19T03:13:59;100088.75;;;6.88
76381;BMP280;65202;52.520;10.528;2023-11-19T03:16:27;100078.31;;;6.94
76381;BMP280;65202;52.520;10.528;2023-11-19T03:18:54;100059.19;;;6.93
76381;BMP280;65202;52.520;10.528;2023-11-19T03:21:29;100076.25;;;7.03
76381;BMP280;65202;52.520;10.528;2023-11-19T03:23:57;100057.13;;;7.02
76381;BMP280;65202;52.520;10.528;2023-11-19T03:26:27;100064.72;;;7.05
76381;BMP280;65202;52.520;10.528;2023-11-19T03:28:54;100056.59;;;7.09
76381;BMP280;65202;52.520;10.528;2023-11-19T03:31:23;100057.63;;;7.13
76381;BMP280;65202;52.520;10.528;2023-11-19T03:33:52;100041.13;;;7.15
76381;BMP280;65202;52.520;10.528;2023-11-19T03:36:22;100053.06;;;7.22
76381;BMP280;65202;52.520;10.528;2023-11-19T03:38:49;100038.84;;;7.19
76381;BMP280;65202;52.520;10.528;2023-11-19T03:41:16;100032.44;;;7.24
76381;BMP280;65202;52.520;10.528;2023-11-19T03:43:44;100028.59;;;7.31
76381;BMP280;65202;52.520;10.528;2023-11-19T03:46:20;100025.41;;;7.33
76381;BMP280;65202;52.520;10.528;2023-11-19T03:48:49;100026.97;;;7.31
76381;BMP280;65202;52.520;10.528;2023-11-19T03:51:17;100030.06;;;7.45
76381;BMP280;65202;52.520;10.528;2023-11-19T03:53:45;100045.00;;;7.45
76381;BMP280;65202;52.520;10.528;2023-11-19T03:56:12;100036.13;;;7.50
76381;BMP280;65202;52.520;10.528;2023-11-19T03:58:40;100041.22;;;7.52
76381;BMP280;65202;52.520;10.528;2023-11-19T04:01:13;100036.44;;;7.57
76381;BMP280;65202;52.520;10.528;2023-11-19T04:03:41;100024.25;;;7.63
76381;BMP280;65202;52.520;10.528;2023-11-19T04:06:11;100024.13;;;7.60
76381;BMP280;65202;52.520;10.528;2023-11-19T04:08:38;100034.09;;;7.60
76381;BMP280;65202;52.520;10.528;2023-11-19T04:11:05;100025.31;;;7.68
76381;BMP280;65202;52.520;10.528;2023-11-19T04:13:33;100017.09;;;7.70
76381;BMP280;65202;52.520;10.528;2023-11-19T04:16:00;100022.38;;;7.76
76381;BMP280;65202;52.520;10.528;2023-11-19T04:18:28;100009.84;;;7.75
76381;BMP280;65202;52.520;10.528;2023-11-19T04:20:55;100010.91;;;7.80
76381;BMP280;65202;52.520;10.528;2023-11-19T04:23:23;100001.13;;;7.84
76381;BMP280;65202;52.520;10.528;2023-11-19T04:25:51;100013.78;;;7.89
76381;BMP280;65202;52.520;10.528;2023-11-19T04:28:19;100003.16;;;7.93
76381;BMP280;65202;52.520;10.528;2023-11-19T04:30:46;100013.22;;;7.96
76381;BMP280;65202;52.520;10.528;2023-11-19T04:33:13;99999.09;;;7.95
76381;BMP280;65202;52.520;10.528;2023-11-19T04:35:41;99994.34;;;8.01
76381;BMP280;65202;52.520;10.528;2023-11-19T04:38:09;100002.75;;;8.03
76381;BMP280;65202;52.520;10.528;2023-11-19T04:40:36;100002.03;;;8.05
76381;BMP280;65202;52.520;10.528;2023-11-19T04:43:03;100005.44;;;8.07
76381;BMP280;65202;52.520;10.528;2023-11-19T04:45:31;100001.59;;;8.14
76381;BMP280;65202;52.520;10.528;2023-11-19T04:47:59;100001.59;;;8.14
76381;BMP280;65202;52.520;10.528;2023-11-19T04:50:26;100006.81;;;8.19
76381;BMP280;65202;52.520;10.528;2023-11-19T04:52:54;100006.69;;;8.16
76381;BMP280;65202;52.520;10.528;2023-11-19T04:55:26;100001.31;;;8.26
76381;BMP280;65202;52.520;10.528;2023-11-19T04:57:54;99994.59;;;8.25
76381;BMP280;65202;52.520;10.528;2023-11-19T05:00:21;99992.38;;;8.31
76381;BMP280;65202;52.520;10.528;2023-11-19T05:02:50;100001.63;;;8.34
76381;BMP280;65202;52.520;10.528;2023-11-19T05:05:17;99995.06;;;8.36
76381;BMP280;65202;52.520;10.528;2023-11-19T05:07:45;99991.69;;;8.35
76381;BMP280;65202;52.520;10.528;2023-11-19T05:10:13;99999.31;;;8.38
76381;BMP280;65202;52.520;10.528;2023-11-19T05:12:40;99997.72;;;8.40
76381;BMP280;65202;52.520;10.528;2023-11-19T05:15:08;100005.16;;;8.39
76381;BMP280;65202;52.520;10.528;2023-11-19T05:17:36;99981.00;;;8.38
76381;BMP280;65202;52.520;10.528;2023-11-19T05:20:05;99990.75;;;8.52
76381;BMP280;65202;52.520;10.528;2023-11-19T05:22:41;99976.69;;;8.54
76381;BMP280;65202;52.520;10.528;2023-11-19T05:25:09;99981.13;;;8.61
76381;BMP280;65202;52.520;10.528;2023-11-19T05:27:37;99965.38;;;8.62
76381;BMP280;65202;52.520;10.528;2023-11-19T05:30:05;99961.97;;;8.60
76381;BMP280;65202;52.520;10.528;2023-11-19T05:32:37;99958.53;;;8.58
76381;BMP280;65202;52.520;10.528;2023-11-19T05:35:06;99956.97;;;8.60
76381;BMP280;65202;52.520;10.528;2023-11-19T05:37:35;99969.63;;;8.44
76381;BMP280;65202;52.520;10.528;2023-11-19T05:40:03;99962.34;;;8.49
76381;BMP280;65202;52.520;10.528;2023-11-19T05:42:33;99948.75;;;8.63
76381;BMP280;65202;52.520;10.528;2023-11-19T05:45:00;99957.22;;;8.66
76381;BMP280;65202;52.520;10.528;2023-11-19T05:47:28;99962.59;;;8.55
76381;BMP280;65202;52.520;10.528;2023-11-19T05:49:55;99949.69;;;8.65
76381;BMP280;65202;52.520;10.528;2023-11-19T05:52:22;99958.72;;;8.63
76381;BMP280;65202;52.520;10.528;2023-11-19T05:54:50;99953.13;;;8.68
76381;BMP280;65202;52.520;10.528;2023-11-19T05:57:19;99961.41;;;8.67
76381;BMP280;65202;52.520;10.528;2023-11-19T05:59:52;99951.44;;;8.67
76381;BMP280;65202;52.520;10.528;2023-11-19T06:02:20;99939.31;;;8.76
76381;BMP280;65202;52.520;10.528;2023-11-19T06:04:48;99956.59;;;8.72
76381;BMP280;65202;52.520;10.528;2023-11-19T06:07:16;99955.13;;;8.77
76381;BMP280;65202;52.520;10.528;2023-11-19T06:09:44;99947.41;;;8.71
76381;BMP280;65202;52.520;10.528;2023-11-19T06:12:11;99939.06;;;8.70
76381;BMP280;65202;52.520;10.528;2023-11-19T06:14:40;99943.22;;;8.70
76381;BMP280;65202;52.520;10.528;2023-11-19T06:17:07;99951.78;;;8.76
76381;BMP280;65202;52.520;10.528;2023-11-19T06:19:35;99940.03;;;8.74
76381;BMP280;65202;52.520;10.528;2023-11-19T06:22:03;99929.19;;;8.73
76381;BMP280;65202;52.520;10.528;2023-11-19T06:24:30;99935.16;;;8.77
76381;BMP280;65202;52.520;10.528;2023-11-19T06:26:57;99935.78;;;8.71
76381;BMP280;65202;52.520;10.528;2023-11-19T06:29:25;99947.69;;;8.78
76381;BMP280;65202;52.520;10.528;2023-11-19T06:31:52;99937.94;;;8.84
76381;BMP280;65202;52.520;10.528;2023-11-19T06:34:19;99943.78;;;8.84
76381;BMP280;65202;52.520;10.528;2023-11-19T06:36:46;99951.91;;;8.79
76381;BMP280;65202;52.520;10.528;2023-11-19T06:39:15;99948.63;;;8.80
76381;BMP280;65202;52.520;10.528;2023-11-19T06:41:45;99952.13;;;8.85
76381;BMP280;65202;52.520;10.528;2023-11-19T06:44:13;99960.50;;;8.87
76381;BMP280;65202;52.520;10.528;2023-11-19T06:46:40;99961.63;;;8.93
76381;BMP280;65202;52.520;10.528;2023-11-19T06:49:08;99951.56;;;8.92
76381;BMP280;65202;52.520;10.528;2023-11-19T06:51:35;99956.44;;;8.89
76381;BMP280;65202;52.520;10.528;2023-11-19T06:54:02;99954.13;;;8.93
76381;BMP280;65202;52.520;10.528;2023-11-19T06:56:29;99955.75;;;8.93
76381;BMP280;65202;52.520;10.528;2023-11-19T06:58:57;99966.53;;;8.92
76381;BMP280;65202;52.520;10.528;2023-11-19T07:01:24;99959.00;;;8.90
76381;BMP280;65202;52.520;10.528;2023-11-19T07:03:51;99954.19;;;8.95
76381;BMP280;65202;52.520;10.528;2023-11-19T07:06:19;99961.44;;;8.89
76381;BMP280;65202;52.520;10.528;2023-11-19T07:08:46;99962.28;;;8.89
76381;BMP280;65202;52.520;10.528;2023-11-19T07:11:13;99968.38;;;8.96
76381;BMP280;65202;52.520;10.528;2023-11-19T07:13:42;99964.97;;;8.94
76381;BMP280;65202;52.520;10.528;2023-11-19T07:16:10;99969.31;;;8.99
76381;BMP280;65202;52.520;10.528;2023-11-19T07:18:37;99981.13;;;9.03
76381;BMP280;65202;52.520;10.528;2023-11-19T07:21:05;99978.81;;;9.08
76381;BMP280;65202;52.520;10.528;2023-11-19T07:23:32;99985.63;;;9.12
76381;BMP280;65202;52.520;10.528;2023-11-19T07:26:01;99981.66;;;9.17
76381;BMP280;65202;52.520;10.528;2023-11-19T07:28:31;99982.06;;;9.27
76381;BMP280;65202;52.520;10.528;2023-11-19T07:30:59;99983.97;;;9.34
76381;BMP280;65202;52.520;10.528;2023-11-19T07:33:26;99982.59;;;9.42
76381;BMP280;65202;52.520;10.528;2023-11-19T07:35:54;99985.19;;;9.43
76381;BMP280;65202;52.520;10.528;2023-11-19T07:38:22;99985.28;;;9.46
76381;BMP280;65202;52.520;10.528;2023-11-19T07:40:49;99987.09;;;9.50
76381;BMP280;65202;52.520;10.528;2023-11-19T07:43:19;99988.69;;;9.48
76381;BMP280;65202;52.520;10.528;2023-11-19T07:45:46;99986.47;;;9.56
76381;BMP280;65202;52.520;10.528;2023-11-19T07:48:13;99985.91;;;9.64
76381;BMP280;65202;52.520;10.528;2023-11-19T07:50:42;99981.88;;;9.68
76381;BMP280;65202;52.520;10.528;2023-11-19T07:53:09;99977.97;;;9.74
76381;BMP280;65202;52.520;10.528;2023-11-19T07:55:37;99978.88;;;9.76
76381;BMP280;65202;52.520;10.528;2023-11-19T07:58:09;99994.22;;;9.87
76381;BMP280;65202;52.520;10.528;2023-11-19T08:00:37;99991.09;;;9.92
76381;BMP280;65202;52.520;10.528;2023-11-19T08:03:04;99994.72;;;9.99
76381;BMP280;65202;52.520;10.528;2023-11-19T08:05:32;99992.47;;;10.06
76381;BMP280;65202;52.520;10.528;2023-11-19T08:07:59;100006.16;;;10.17
76381;BMP280;65202;52.520;10.528;2023-11-19T08:10:26;100008.84;;;10.21
76381;BMP280;65202;52.520;10.528;2023-11-19T08:12:54;99988.91;;;10.24
76381;BMP280;65202;52.520;10.528;2023-11-19T08:15:21;99998.28;;;10.30
76381;BMP280;65202;52.520;10.528;2023-11-19T08:17:51;100000.09;;;10.34
76381;BMP280;65202;52.520;10.528;2023-11-19T08:20:18;99990.16;;;10.37
76381;BMP280;65202;52.520;10.528;2023-11-19T08:22:46;99990.16;;;10.37
76381;BMP280;65202;52.520;10.528;2023-11-19T08:25:13;99992.09;;;10.44
76381;BMP280;65202;52.520;10.528;2023-11-19T08:27:40;99993.97;;;10.51
76381;BMP280;65202;52.520;10.528;2023-11-19T08:30:08;99999.22;;;10.58
76381;BMP280;65202;52.520;10.528;2023-11-19T08:32:36;100006.19;;;10.67
76381;BMP280;65202;52.520;10.528;2023-11-19T08:35:04;99994.56;;;10.68
76381;BMP280;65202;52.520;10.528;2023-11-19T08:37:32;99997.94;;;10.70
76381;BMP280;65202;52.520;10.528;2023-11-19T08:40:00;99995.69;;;10.78
76381;BMP280;65202;52.520;10.528;2023-11-19T08:42:28;99988.28;;;11.35
76381;BMP280;65202;52.520;10.528;2023-11-19T08:44:55;99987.75;;;11.45
76381;BMP280;65202;52.520;10.528;2023-11-19T08:47:22;99996.22;;;11.22
76381;BMP280;65202;52.520;10.528;2023-11-19T08:49:51;99996.75;;;11.12
76381;BMP280;65202;52.520;10.528;2023-11-19T08:52:24;100009.16;;;11.35
76381;BMP280;65202;52.520;10.528;2023-11-19T08:54:52;100001.59;;;11.34
76381;BMP280;65202;52.520;10.528;2023-11-19T08:57:19;100007.31;;;11.29
76381;BMP280;65202;52.520;10.528;2023-11-19T08:59:46;100008.19;;;11.30
76381;BMP280;65202;52.520;10.528;2023-11-19T09:02:13;100001.75;;;11.66
76381;BMP280;65202;52.520;10.528;2023-11-19T09:04:41;99988.16;;;12.52
76381;BMP280;65202;52.520;10.528;2023-11-19T09:07:08;99991.34;;;12.45
76381;BMP280;65202;52.520;10.528;2023-11-19T09:09:39;99997.56;;;14.12
76381;BMP280;65202;52.520;10.528;2023-11-19T09:12:07;99982.00;;;13.89
76381;BMP280;65202;52.520;10.528;2023-11-19T09:14:34;99993.66;;;13.84
76381;BMP280;65202;52.520;10.528;2023-11-19T09:17:01;99991.63;;;14.10
76381;BMP280;65202;52.520;10.528;2023-11-19T09:19:32;99983.00;;;14.42
76381;BMP280;65202;52.520;10.528;2023-11-19T09:22:00;99993.81;;;13.93
76381;BMP280;65202;52.520;10.528;2023-11-19T09:24:27;99996.09;;;13.04
76381;BMP280;65202;52.520;10.528;2023-11-19T09:26:55;99995.19;;;12.65
76381;BMP280;65202;52.520;10.528;2023-11-19T09:29:23;100004.84;;;13.19
76381;BMP280;65202;52.520;10.528;2023-11-19T09:31:50;100009.94;;;13.60
76381;BMP280;65202;52.520;10.528;2023-11-19T09:34:18;100012.69;;;13.72
76381;BMP280;65202;52.520;10.528;2023-11-19T09:36:45;100008.84;;;13.89
76381;BMP280;65202;52.520;10.528;2023-11-19T09:39:13;100021.91;;;14.13
76381;BMP280;65202;52.520;10.528;2023-11-19T09:41:45;100004.47;;;14.22
76381;BMP280;65202;52.520;10.528;2023-11-19T09:44:12;100017.22;;;14.32
76381;BMP280;65202;52.520;10.528;2023-11-19T09:46:42;100015.63;;;14.36
76381;BMP280;65202;52.520;10.528;2023-11-19T09:49:10;100018.38;;;13.64
76381;BMP280;65202;52.520;10.528;2023-11-19T09:51:40;100018.59;;;13.74
76381;BMP280;65202;52.520;10.528;2023-11-19T09:54:07;100016.84;;;13.70
76381;BMP280;65202;52.520;10.528;2023-11-19T09:56:35;100020.19;;;13.71
76381;BMP280;65202;52.520;10.528;2023-11-19T09:59:05;100025.06;;;13.62
76381;BMP280;65202;52.520;10.528;2023-11-19T10:01:33;100015.66;;;13.15
76381;BMP280;65202;52.520;10.528;2023-11-19T10:04:01;100023.84;;;13.08
76381;BMP280;65202;52.520;10.528;2023-11-19T10:06:29;100021.47;;;13.13
76381;BMP280;65202;52.520;10.528;2023-11-19T10:08:56;100021.91;;;13.33
76381;BMP280;65202;52.520;10.528;2023-11-19T10:11:24;100023.81;;;13.43
76381;BMP280;65202;52.520;10.528;2023-11-19T10:13:53;100033.88;;;13.43
76381;BMP280;65202;52.520;10.528;2023-11-19T10:16:20;100034.44;;;13.30
76381;BMP280;65202;52.520;10.528;2023-11-19T10:18:55;100037.81;;;12.96
76381;BMP280;65202;52.520;10.528;2023-11-19T10:21:23;100038.97;;;12.76
76381;BMP280;65202;52.520;10.528;2023-11-19T10:23:57;100046.03;;;12.58
76381;BMP280;65202;52.520;10.528;2023-11-19T10:26:27;100043.31;;;12.49
76381;BMP280;65202;52.520;10.528;2023-11-19T10:28:55;100042.44;;;12.49
76381;BMP280;65202;52.520;10.528;2023-11-19T10:31:23;100044.84;;;12.44
76381;BMP280;65202;52.520;10.528;2023-11-19T10:33:54;100053.34;;;12.49
76381;BMP280;65202;52.520;10.528;2023-11-19T10:36:21;100043.38;;;12.52
76381;BMP280;65202;52.520;10.528;2023-11-19T10:41:30;100034.31;;;12.57
76381;BMP280;65202;52.520;10.528;2023-11-19T10:43:59;100041.06;;;12.59
76381;BMP280;65202;52.520;10.528;2023-11-19T10:46:40;100033.47;;;12.57
76381;BMP280;65202;52.520;10.528;2023-11-19T10:49:09;100038.69;;;12.64
76381;BMP280;65202;52.520;10.528;2023-11-19T10:51:44;100028.09;;;12.77
76381;BMP280;65202;52.520;10.528;2023-11-19T10:54:15;100033.75;;;12.68
76381;BMP280;65202;52.520;10.528;2023-11-19T10:56:48;100029.56;;;12.67
76381;BMP280;65202;52.520;10.528;2023-11-19T10:59:28;100028.31;;;12.52
76381;BMP280;65202;52.520;10.528;2023-11-19T11:02:03;100032.09;;;12.37
76381;BMP280;65202;52.520;10.528;2023-11-19T11:04:39;100027.16;;;12.40
76381;BMP280;65202;52.520;10.528;2023-11-19T11:07:09;100033.94;;;12.44
76381;BMP280;65202;52.520;10.528;2023-11-19T11:09:36;100020.81;;;12.54
76381;BMP280;65202;52.520;10.528;2023-11-19T11:12:06;100013.16;;;12.81
76381;BMP280;65202;52.520;10.528;2023-11-19T11:14:34;100025.66;;;12.80
76381;BMP280;65202;52.520;10.528;2023-11-19T11:17:04;100024.75;;;12.76
76381;BMP280;65202;52.520;10.528;2023-11-19T11:19:35;100016.16;;;12.68
76381;BMP280;65202;52.520;10.528;2023-11-19T11:22:04;100015.16;;;12.60
76381;BMP280;65202;52.520;10.528;2023-11-19T11:25:00;100029.47;;;12.64
76381;BMP280;65202;52.520;10.528;2023-11-19T11:27:58;100013.78;;;12.73
76381;BMP280;65202;52.520;10.528;2023-11-19T11:36:42;100026.91;;;12.61
76381;BMP280;65202;52.520;10.528;2023-11-19T11:39:29;100011.97;;;12.67
76381;BMP280;65202;52.520;10.528;2023-11-19T11:45:01;100038.69;;;12.64
76381;BMP280;65202;52.520;10.528;2023-11-19T11:50:23;100034.31;;;12.57
76381;BMP280;65202;52.520;10.528;2023-11-19T11:55:36;100035.22;;;12.60
76381;BMP280;65202;52.520;10.528;2023-11-19T11:58:08;100030.34;;;12.65
76381;BMP280;65202;52.520;10.528;2023-11-19T12:00:40;100031.34;;;12.71
76381;BMP280;65202;52.520;10.528;2023-11-19T12:03:08;100024.56;;;12.69
76381;BMP280;65202;52.520;10.528;2023-11-19T12:05:40;100032.69;;;12.59
76381;BMP280;65202;52.520;10.528;2023-11-19T12:08:18;100035.09;;;12.56
76381;BMP280;65202;52.520;10.528;2023-11-19T12:10:56;100031.63;;;12.51
76381;BMP280;65202;52.520;10.528;2023-11-19T12:13:55;100040.81;;;12.49
76381;BMP280;65202;52.520;10.528;2023-11-19T12:16:25;100041.59;;;12.48
76381;BMP280;65202;52.520;10.528;2023-11-19T12:18:56;100037.28;;;12.43
76381;BMP280;65202;52.520;10.528;2023-11-19T12:21:30;100028.09;;;12.43
76381;BMP280;65202;52.520;10.528;2023-11-19T12:23:59;100020.53;;;12.42
76381;BMP280;65202;52.520;10.528;2023-11-19T12:26:36;100029.78;;;12.44
76381;BMP280;65202;52.520;10.528;2023-11-19T12:29:04;100018.81;;;12.41
76381;BMP280;65202;52.520;10.528;2023-11-19T12:31:35;100024.59;;;12.38
76381;BMP280;65202;52.520;10.528;2023-11-19T12:34:06;100008.13;;;12.48
76381;BMP280;65202;52.520;10.528;2023-11-19T12:36:35;100000.06;;;12.59
76381;BMP280;65202;52.520;10.528;2023-11-19T12:39:03;100011.97;;;13.01
76381;BMP280;65202;52.520;10.528;2023-11-19T12:41:30;100012.69;;;12.96
76381;BMP280;65202;52.520;10.528;2023-11-19T12:44:10;100008.97;;;12.82
76381;BMP280;65202;52.520;10.528;2023-11-19T12:46:39;100019.72;;;12.76
76381;BMP280;65202;52.520;10.528;2023-11-19T12:49:06;100017.94;;;12.72
76381;BMP280;65202;52.520;10.528;2023-11-19T12:51:34;100004.34;;;12.64
76381;BMP280;65202;52.520;10.528;2023-11-19T12:54:01;100015.97;;;12.61
76381;BMP280;65202;52.520;10.528;2023-11-19T12:56:28;100013.34;;;12.55
76381;BMP280;65202;52.520;10.528;2023-11-19T12:58:56;100019.97;;;12.53
76381;BMP280;65202;52.520;10.528;2023-11-19T13:01:23;100019.06;;;12.51
76381;BMP280;65202;52.520;10.528;2023-11-19T13:03:51;100020.72;;;12.49
76381;BMP280;65202;52.520;10.528;2023-11-19T13:06:19;100015.69;;;12.49
76381;BMP280;65202;52.520;10.528;2023-11-19T13:08:49;100016.56;;;12.51
76381;BMP280;65202;52.520;10.528;2023-11-19T13:11:33;100014.78;;;12.47
76381;BMP280;65202;52.520;10.528;2023-11-19T13:14:03;100018.94;;;12.45
76381;BMP280;65202;52.520;10.528;2023-11-19T13:16:32;100018.22;;;12.49
76381;BMP280;65202;52.520;10.528;2023-11-19T13:19:00;100015.84;;;12.55
76381;BMP280;65202;52.520;10.528;2023-11-19T13:21:27;100019.97;;;12.53
76381;BMP280;65202;52.520;10.528;2023-11-19T13:23:55;100018.13;;;12.46
76381;BMP280;65202;52.520;10.528;2023-11-19T13:26:23;100016.28;;;12.39
76381;BMP280;65202;52.520;10.528;2023-11-19T13:28:50;100021.13;;;12.33
76381;BMP280;65202;52.520;10.528;2023-11-19T13:31:18;100017.75;;;12.31
76381;BMP280;65202;52.520;10.528;2023-11-19T13:33:46;100019.19;;;12.23
76381;BMP280;65202;52.520;10.528;2023-11-19T13:36:13;100007.41;;;12.21
76381;BMP280;65202;52.520;10.528;2023-11-19T13:38:43;100014.94;;;12.21
76381;BMP280;65202;52.520;10.528;2023-11-19T13:41:14;100012.56;;;12.25
76381;BMP280;65202;52.520;10.528;2023-11-19T13:43:41;100012.56;;;12.25
76381;BMP280;65202;52.520;10.528;2023-11-19T13:46:08;100019.28;;;12.26
76381;BMP280;65202;52.520;10.528;2023-11-19T13:48:39;100014.28;;;12.26
76381;BMP280;65202;52.520;10.528;2023-11-19T13:51:06;100014.97;;;12.22
76381;BMP280;65202;52.520;10.528;2023-11-19T13:53:34;100014.09;;;12.19
76381;BMP280;65202;52.520;10.528;2023-11-19T13:56:04;100009.84;;;12.16
76381;BMP280;65202;52.520;10.528;2023-11-19T13:58:32;100013.25;;;12.20
76381;BMP280;65202;52.520;10.528;2023-11-19T14:00:59;100003.91;;;12.14
76381;BMP280;65202;52.520;10.528;2023-11-19T14:03:27;100016.41;;;12.13
76381;BMP280;65202;52.520;10.528;2023-11-19T14:05:54;100011.44;;;12.14
76381;BMP280;65202;52.520;10.528;2023-11-19T14:08:22;100009.72;;;12.13
76381;BMP280;65202;52.520;10.528;2023-11-19T14:10:52;100002.22;;;12.15
76381;BMP280;65202;52.520;10.528;2023-11-19T14:13:23;100010.66;;;12.17
76381;BMP280;65202;52.520;10.528;2023-11-19T14:15:51;100005.91;;;12.27
76381;BMP280;65202;52.520;10.528;2023-11-19T14:18:18;100006.59;;;12.20
76381;BMP280;65202;52.520;10.528;2023-11-19T14:20:46;100010.66;;;12.17
76381;BMP280;65202;52.520;10.528;2023-11-19T14:23:13;100006.56;;;12.19